Time;durP1;ratioP1;P1;durP2;ratioP2;P2;SDS_P1;SDS_P2;PMS_P1;PMS_P2;Temp;Humidity;BMP_temperature;BMP_pressure;BME280_temperature;BME280_humidity;BME280_pressure;Samples;Min_cycle;Max_cycle;Signal;HPM_P1;HPM_P2
2023/09/02 00:00:03;;;;;;;6.70;4.20;;;14.60;58.10;;;;;;5114831;27;46667;-79
2023/09/02 00:02:28;;;;;;;8.17;4.57;;;14.60;59.20;;;;;;5129211;27;47208;-81
2023/09/02 00:04:54;;;;;;;6.73;3.50;;;14.50;58.30;;;;;;5113643;27;46911;-80
2023/09/02 00:07:20;;;;;;;10.43;4.30;;;14.40;59.70;;;;;;5126547;27;46527;-77
2023/09/02 00:09:45;;;;;;;5.17;3.53;;;14.30;59.10;;;;;;5122851;27;46406;-80
2023/09/02 00:12:11;;;;;;;9.67;3.23;;;14.20;60.00;;;;;;5129417;27;46489;-78
2023/09/02 00:14:36;;;;;;;8.23;3.70;;;14.20;60.20;;;;;;5130404;27;46798;-80
2023/09/02 00:17:02;;;;;;;5.93;3.53;;;14.20;60.30;;;;;;5110481;27;46496;-80
2023/09/02 00:19:28;;;;;;;8.63;3.90;;;14.10;59.60;;;;;;5107597;27;46617;-79
2023/09/02 00:21:54;;;;;;;9.77;3.60;;;13.40;59.80;;;;;;5130139;27;46576;-80
2023/09/02 00:24:21;;;;;;;6.37;3.13;;;14.10;60.30;;;;;;5126340;27;46483;-78
2023/09/02 00:26:47;;;;;;;7.40;3.50;;;14.10;60.50;;;;;;5127172;27;46514;-79
2023/09/02 00:29:12;;;;;;;6.60;3.50;;;14.10;60.40;;;;;;5129038;27;47557;-77
2023/09/02 00:31:38;;;;;;;5.83;3.50;;;14.00;59.40;;;;;;5130917;27;46392;-79
2023/09/02 00:34:03;;;;;;;6.27;3.63;;;14.00;60.40;;;;;;5127143;27;46689;-79
2023/09/02 00:36:30;;;;;;;7.83;3.67;;;14.00;60.30;;;;;;5110708;27;46414;-80
2023/09/02 00:38:59;;;;;;;5.77;3.87;;;14.00;60.30;;;;;;5112791;27;46460;-81
2023/09/02 00:41:44;;;;;;;7.97;3.93;;;14.00;59.40;;;;;;5128899;27;46967;-80
2023/09/02 00:44:09;;;;;;;6.90;3.77;;;14.00;59.20;;;;;;5116869;27;46555;-80
2023/09/02 00:46:35;;;;;;;7.43;3.73;;;14.10;60.30;;;;;;5126305;27;46546;-79
2023/09/02 00:49:00;;;;;;;10.70;3.30;;;14.20;60.30;;;;;;5107482;27;46844;-80
2023/09/02 00:51:27;;;;;;;7.70;3.30;;;14.00;59.10;;;;;;5129572;27;47447;-79
2023/09/02 00:53:53;;;;;;;7.67;3.90;;;14.00;60.00;;;;;;5109673;27;46912;-82
2023/09/02 00:56:19;;;;;;;7.30;3.77;;;14.00;60.00;;;;;;5127722;27;46557;-82
2023/09/02 00:58:44;;;;;;;6.73;3.87;;;14.00;60.00;;;;;;5128512;27;46572;-81
2023/09/02 01:01:11;;;;;;;5.73;3.30;;;14.00;59.00;;;;;;5126403;27;46492;-82
2023/09/02 01:03:38;;;;;;;7.83;4.07;;;14.00;60.00;;;;;;5129436;27;46859;-80
2023/09/02 01:06:05;;;;;;;5.10;3.43;;;14.00;59.90;;;;;;5130737;27;46976;-80
2023/09/02 01:08:30;;;;;;;6.53;4.00;;;14.00;60.00;;;;;;5131369;27;46445;-81
2023/09/02 01:11:00;;;;;;;11.40;4.17;;;14.00;59.90;;;;;;5128019;27;46344;-79
2023/09/02 01:13:27;;;;;;;8.83;3.90;;;14.10;59.80;;;;;;5130272;27;47125;-81
2023/09/02 01:15:54;;;;;;;8.17;4.90;;;14.00;59.80;;;;;;5107857;27;46587;-81
2023/09/02 01:18:24;;;;;;;6.50;4.27;;;14.10;59.70;;;;;;5126887;27;46551;-80
2023/09/02 01:21:17;;;;;;;7.50;4.40;;;14.20;59.80;;;;;;5127487;27;46648;-79
2023/09/02 01:24:13;;;;;;;6.77;3.80;;;14.20;59.80;;;;;;5124465;27;46394;-81
2023/09/02 01:27:06;;;;;;;6.07;3.90;;;14.10;59.70;;;;;;5125922;27;47016;-81
2023/09/02 01:29:36;;;;;;;5.73;3.70;;;14.10;58.80;;;;;;5126572;27;46701;-80
2023/09/02 01:32:05;;;;;;;6.43;3.97;;;14.10;59.80;;;;;;5128178;27;46484;-83
2023/09/02 01:34:33;;;;;;;5.63;3.60;;;14.10;60.00;;;;;;5107865;27;46411;-80
2023/09/02 01:37:00;;;;;;;6.17;3.83;;;14.10;60.10;;;;;;5128675;27;46927;-78
2023/09/02 01:39:28;;;;;;;6.33;4.00;;;14.00;59.40;;;;;;5109478;27;46443;-80
2023/09/02 01:41:54;;;;;;;8.27;3.83;;;14.00;60.30;;;;;;5126648;27;46535;-80
2023/09/02 01:44:21;;;;;;;6.60;3.87;;;14.00;60.40;;;;;;5124639;27;46742;-79
2023/09/02 01:46:47;;;;;;;6.87;3.70;;;14.00;60.20;;;;;;5128032;27;46862;-80
2023/09/02 01:49:13;;;;;;;10.47;3.20;;;14.00;60.20;;;;;;5127657;27;46997;-80
2023/09/02 01:51:40;;;;;;;8.07;4.10;;;14.00;59.10;;;;;;5109284;27;48450;-80
2023/09/02 01:54:06;;;;;;;6.07;3.60;;;14.00;60.00;;;;;;5108567;27;46367;-78
2023/09/02 01:56:32;;;;;;;3.97;2.87;;;13.30;59.60;;;;;;5108320;27;46937;-80
2023/09/02 01:58:57;;;;;;;5.00;3.27;;;14.00;60.40;;;;;;5128523;27;46604;-80
2023/09/02 02:01:23;;;;;;;7.33;3.67;;;13.80;59.40;;;;;;5124627;27;46519;-79
2023/09/02 02:04:02;;;;;;;13.20;3.80;;;13.90;60.20;;;;;;5110381;27;46961;-78
2023/09/02 02:06:30;;;;;;;5.50;3.50;;;13.90;60.00;;;;;;5128212;27;46544;-79
2023/09/02 02:09:06;;;;;;;6.17;4.00;;;13.90;59.80;;;;;;5127114;27;46377;-78
2023/09/02 02:11:35;;;;;;;6.03;3.13;;;13.90;58.80;;;;;;5127442;27;47388;-79
2023/09/02 02:14:02;;;;;;;6.17;3.90;;;14.00;59.90;;;;;;5128274;27;46463;-80
2023/09/02 02:16:28;;;;;;;4.90;3.10;;;14.00;59.60;;;;;;5126442;27;46424;-79
2023/09/02 02:18:54;;;;;;;5.50;3.10;;;14.00;59.50;;;;;;5126803;27;46566;-80
2023/09/02 02:21:20;;;;;;;7.87;4.03;;;14.00;58.60;;;;;;5125980;27;46473;-80
2023/09/02 02:23:46;;;;;;;7.27;3.33;;;13.90;59.60;;;;;;5125137;27;46396;-80
2023/09/02 02:26:11;;;;;;;5.33;3.50;;;13.90;59.60;;;;;;5103914;27;46838;-78
2023/09/02 02:28:38;;;;;;;9.40;3.90;;;14.10;59.80;;;;;;5125116;27;45916;-78
2023/09/02 02:31:04;;;;;;;5.17;3.50;;;13.90;59.60;;;;;;5115703;27;48978;-80
2023/09/02 02:33:30;;;;;;;5.17;3.10;;;13.80;60.70;;;;;;5127089;27;46671;-81
2023/09/02 02:35:56;;;;;;;7.00;4.03;;;13.80;59.90;;;;;;5130869;27;46759;-80
2023/09/02 02:38:21;;;;;;;8.83;3.60;;;13.70;60.00;;;;;;5129960;27;46461;-78
2023/09/02 02:40:47;;;;;;;7.33;3.50;;;13.70;60.10;;;;;;5130293;27;47259;-79
2023/09/02 02:43:12;;;;;;;6.57;3.80;;;13.80;60.30;;;;;;5131612;27;46711;-79
2023/09/02 02:45:38;;;;;;;5.37;3.00;;;13.60;60.20;;;;;;5132460;27;46541;-78
2023/09/02 02:48:04;;;;;;;5.07;3.40;;;13.50;60.40;;;;;;5131517;27;46565;-80
2023/09/02 02:50:29;;;;;;;7.30;3.30;;;13.50;60.60;;;;;;5132706;27;47290;-79
2023/09/02 02:52:55;;;;;;;6.23;3.50;;;13.50;60.50;;;;;;5135011;27;46754;-79
2023/09/02 02:55:20;;;;;;;7.43;3.80;;;13.50;60.40;;;;;;5132249;27;46490;-79
2023/09/02 02:57:47;;;;;;;5.37;3.80;;;13.50;60.30;;;;;;5130822;27;46445;-79
2023/09/02 03:00:13;;;;;;;8.10;3.80;;;13.50;60.40;;;;;;5130235;27;47555;-79
2023/09/02 03:02:39;;;;;;;8.13;3.83;;;13.50;60.30;;;;;;5133300;27;46815;-79
2023/09/02 03:05:04;;;;;;;7.63;3.67;;;13.50;60.40;;;;;;5131149;27;46616;-78
2023/09/02 03:07:30;;;;;;;4.50;3.27;;;13.50;60.40;;;;;;5110974;27;46533;-79
2023/09/02 03:09:56;;;;;;;6.53;3.70;;;13.50;60.30;;;;;;5130016;27;46518;-75
2023/09/02 03:12:21;;;;;;;7.40;3.30;;;13.50;60.40;;;;;;5113355;27;46670;-79
2023/09/02 03:14:47;;;;;;;5.47;3.60;;;13.50;60.50;;;;;;5131421;27;46880;-79
2023/09/02 03:17:13;;;;;;;4.60;3.17;;;13.40;60.50;;;;;;5110967;27;46635;-78
2023/09/02 03:19:44;;;;;;;5.63;3.10;;;13.40;59.90;;;;;;5130735;27;46534;-76
2023/09/02 03:22:09;;;;;;;5.93;3.63;;;13.40;60.80;;;;;;5127338;27;46410;-76
2023/09/02 03:24:35;;;;;;;4.83;3.33;;;13.30;60.80;;;;;;5129916;27;46515;-76
2023/09/02 03:27:03;;;;;;;4.93;2.77;;;13.30;61.10;;;;;;5128650;27;46730;-80
2023/09/02 03:29:29;;;;;;;6.47;3.23;;;13.20;60.50;;;;;;5130954;27;46677;-78
2023/09/02 03:31:54;;;;;;;5.97;3.37;;;13.10;60.70;;;;;;5113139;27;47415;-79
2023/09/02 03:34:20;;;;;;;5.13;3.57;;;13.10;61.60;;;;;;5127568;27;46398;-80
2023/09/02 03:36:45;;;;;;;5.23;3.50;;;13.10;61.70;;;;;;5129525;27;46883;-79
2023/09/02 03:39:11;;;;;;;4.93;3.20;;;13.10;61.80;;;;;;5129931;27;47297;-77
2023/09/02 03:41:38;;;;;;;6.03;3.60;;;13.10;60.90;;;;;;5129772;27;47012;-80
2023/09/02 03:44:04;;;;;;;6.10;3.20;;;13.10;62.00;;;;;;5129867;27;46600;-80
2023/09/02 03:46:29;;;;;;;10.87;4.37;;;13.10;62.00;;;;;;5127536;27;46786;-79
2023/09/02 03:48:55;;;;;;;11.33;3.13;;;13.00;62.00;;;;;;5110010;27;49281;-79
2023/09/02 03:51:21;;;;;;;8.30;4.00;;;13.00;61.00;;;;;;5127303;27;45831;-80
2023/09/02 03:53:46;;;;;;;7.93;3.43;;;13.00;62.00;;;;;;5130370;27;46441;-79
2023/09/02 03:56:12;;;;;;;5.90;3.30;;;13.00;62.10;;;;;;5127272;27;45896;-78
2023/09/02 03:58:38;;;;;;;5.60;3.00;;;12.90;62.20;;;;;;5112932;27;49477;-79
2023/09/02 04:01:04;;;;;;;4.87;3.23;;;12.90;62.30;;;;;;5108825;27;46432;-78
2023/09/02 04:03:35;;;;;;;11.60;4.10;;;12.90;62.50;;;;;;5128209;27;46362;-80
2023/09/02 04:06:01;;;;;;;5.30;3.40;;;12.80;62.50;;;;;;5130050;27;46437;-79
2023/09/02 04:08:27;;;;;;;6.77;3.97;;;12.80;62.30;;;;;;5128097;27;47015;-77
2023/09/02 04:10:54;;;;;;;10.07;3.47;;;12.90;62.50;;;;;;5126421;27;46925;-81
2023/09/02 04:13:24;;;;;;;7.37;3.50;;;12.90;62.40;;;;;;5127591;27;45923;-79
2023/09/02 04:15:57;;;;;;;9.67;3.97;;;12.80;62.30;;;;;;5130701;27;46435;-80
2023/09/02 04:18:23;;;;;;;6.07;3.50;;;12.80;62.40;;;;;;5131515;27;47087;-78
2023/09/02 04:20:49;;;;;;;5.30;3.67;;;12.90;62.40;;;;;;5133715;27;45853;-79
2023/09/02 04:23:15;;;;;;;6.80;3.73;;;13.00;62.40;;;;;;5115289;27;45854;-80
2023/09/02 04:25:48;;;;;;;5.97;3.97;;;12.90;62.20;;;;;;5130031;27;47574;-81
2023/09/02 04:28:15;;;;;;;6.83;3.53;;;12.90;62.10;;;;;;5110990;27;48061;-78
2023/09/02 04:30:42;;;;;;;6.23;3.80;;;12.90;62.00;;;;;;5114113;27;46995;-78
2023/09/02 04:33:08;;;;;;;7.20;3.90;;;12.90;62.10;;;;;;5131718;27;46783;-78
2023/09/02 04:35:41;;;;;;;5.83;3.50;;;12.90;62.20;;;;;;5128052;27;46599;-80
2023/09/02 04:38:07;;;;;;;8.67;4.23;;;12.90;62.30;;;;;;5132323;27;46827;-81
2023/09/02 04:40:43;;;;;;;7.50;3.30;;;13.00;62.40;;;;;;5129424;27;45971;-80
2023/09/02 04:43:10;;;;;;;6.70;3.40;;;12.90;62.30;;;;;;5134771;27;46777;-77
2023/09/02 04:45:37;;;;;;;5.60;3.80;;;12.90;62.30;;;;;;5134817;27;46711;-80
2023/09/02 04:48:04;;;;;;;4.33;3.40;;;12.90;62.30;;;;;;5130581;27;46795;-80
2023/09/02 04:50:31;;;;;;;6.57;3.87;;;12.90;62.30;;;;;;5126123;27;46379;-80
2023/09/02 04:52:58;;;;;;;5.80;3.90;;;12.90;62.30;;;;;;5114044;27;46497;-79
2023/09/02 04:55:25;;;;;;;4.97;3.30;;;13.00;62.30;;;;;;5108117;27;46403;-81
2023/09/02 04:57:57;;;;;;;6.13;3.60;;;13.00;61.10;;;;;;5128670;27;48428;-85
2023/09/02 05:00:24;;;;;;;8.87;4.03;;;13.30;60.60;;;;;;5110532;27;46477;-86
2023/09/02 05:02:50;;;;;;;5.77;3.70;;;13.40;61.40;;;;;;5107548;27;46525;-78
2023/09/02 05:05:17;;;;;;;6.90;3.97;;;13.60;60.70;;;;;;5130834;27;46424;-79
2023/09/02 05:07:43;;;;;;;8.67;4.20;;;13.80;60.00;;;;;;5131022;27;46796;-78
2023/09/02 05:10:09;;;;;;;8.37;4.07;;;14.00;59.50;;;;;;5131050;27;46569;-80
2023/09/02 05:12:34;;;;;;;6.87;3.70;;;14.20;59.20;;;;;;5128914;27;46486;-78
2023/09/02 05:15:00;;;;;;;7.37;4.00;;;14.20;59.20;;;;;;5114711;27;46422;-78
2023/09/02 05:17:26;;;;;;;4.53;3.10;;;14.40;59.10;;;;;;5127446;27;46491;-80
2023/09/02 05:19:52;;;;;;;8.17;3.53;;;14.40;59.20;;;;;;5113334;27;46442;-81
2023/09/02 05:22:18;;;;;;;5.80;3.50;;;14.40;59.30;;;;;;5128058;27;46960;-80
2023/09/02 05:24:43;;;;;;;7.73;3.60;;;14.60;59.30;;;;;;5110599;27;46391;-80
2023/09/02 05:27:09;;;;;;;6.70;3.13;;;15.00;58.30;;;;;;5130641;27;46561;-79
2023/09/02 05:29:35;;;;;;;5.03;3.17;;;16.20;57.60;;;;;;5129737;27;46595;-79
2023/09/02 05:32:00;;;;;;;4.93;3.17;;;16.30;58.70;;;;;;5130258;27;46450;-78
2023/09/02 05:34:26;;;;;;;8.83;3.00;;;17.00;58.10;;;;;;5128089;27;46348;-78
2023/09/02 05:36:51;;;;;;;5.53;2.70;;;17.60;57.20;;;;;;5132741;27;46411;-78
2023/09/02 05:39:17;;;;;;;8.20;2.90;;;18.20;55.40;;;;;;5127806;27;46607;-77
2023/09/02 05:41:44;;;;;;;7.73;3.33;;;18.80;52.50;;;;;;5110540;27;46509;-77
2023/09/02 05:44:10;;;;;;;4.50;3.30;;;19.30;52.30;;;;;;5114849;27;46724;-79
2023/09/02 05:46:35;;;;;;;4.77;3.13;;;19.80;50.60;;;;;;5125754;27;46798;-79
2023/09/02 05:49:01;;;;;;;6.60;2.80;;;20.30;49.40;;;;;;5131055;27;47109;-78
2023/09/02 05:51:28;;;;;;;5.97;3.10;;;20.80;45.70;;;;;;5127732;27;46860;-78
2023/09/02 05:53:54;;;;;;;4.73;2.80;;;21.20;46.10;;;;;;5111706;27;46629;-79
2023/09/02 05:56:19;;;;;;;5.33;2.83;;;21.30;45.10;;;;;;5107320;27;48030;-79
2023/09/02 05:58:45;;;;;;;7.33;3.20;;;21.70;43.90;;;;;;5125208;27;46440;-78
2023/09/02 06:01:10;;;;;;;5.37;2.83;;;22.00;40.00;;;;;;5128380;27;46352;-78
2023/09/02 06:03:36;;;;;;;6.03;2.67;;;22.10;40.80;;;;;;5123470;27;46593;-80
2023/09/02 06:06:11;;;;;;;5.83;2.83;;;22.30;38.80;;;;;;5127665;27;46493;-75
2023/09/02 06:08:37;;;;;;;5.27;2.90;;;21.80;38.20;;;;;;5124808;27;45844;-79
2023/09/02 06:11:03;;;;;;;8.63;3.13;;;21.30;38.50;;;;;;5110167;27;46245;-79
2023/09/02 06:13:29;;;;;;;4.63;2.53;;;20.70;38.60;;;;;;5130435;27;46553;-80
2023/09/02 06:16:05;;;;;;;5.30;2.80;;;20.20;39.30;;;;;;5130994;27;46454;-80
2023/09/02 06:18:32;;;;;;;6.53;3.00;;;19.80;39.90;;;;;;5110504;27;47156;-80
2023/09/02 06:20:59;;;;;;;9.07;3.30;;;19.60;40.50;;;;;;5132721;27;46941;-81
2023/09/02 06:23:25;;;;;;;5.20;2.90;;;19.40;40.90;;;;;;5119296;27;46296;-81
2023/09/02 06:25:58;;;;;;;5.43;3.00;;;19.50;41.60;;;;;;5116550;27;49632;-79
2023/09/02 06:28:24;;;;;;;4.00;2.70;;;19.50;41.70;;;;;;5130658;27;46344;-80
2023/09/02 06:30:50;;;;;;;9.67;2.70;;;20.30;36.70;;;;;;5130185;27;45909;-78
2023/09/02 06:33:16;;;;;;;5.20;2.93;;;20.20;37.60;;;;;;5133540;27;46453;-79
2023/09/02 06:35:42;;;;;;;9.53;3.10;;;20.00;38.40;;;;;;5116213;27;48195;-79
2023/09/02 06:38:07;;;;;;;4.67;2.70;;;19.70;39.10;;;;;;5133524;27;45911;-78
2023/09/02 06:40:33;;;;;;;6.27;2.90;;;19.60;39.70;;;;;;5129615;27;46454;-78
2023/09/02 06:42:59;;;;;;;5.47;3.00;;;19.60;39.90;;;;;;5112709;27;46505;-79
2023/09/02 06:45:27;;;;;;;8.73;3.27;;;19.60;40.10;;;;;;5117660;27;49075;-79
2023/09/02 06:47:53;;;;;;;11.10;3.07;;;19.80;40.70;;;;;;5131230;27;46771;-80
2023/09/02 06:50:19;;;;;;;4.60;3.00;;;19.60;40.70;;;;;;5131390;27;46500;-79
2023/09/02 06:52:44;;;;;;;5.10;2.83;;;19.70;40.90;;;;;;5110204;27;45969;-79
2023/09/02 06:55:10;;;;;;;6.00;3.17;;;19.80;41.00;;;;;;5112136;27;48488;-78
2023/09/02 06:57:42;;;;;;;5.00;2.90;;;19.80;41.30;;;;;;5129229;27;48201;-79
2023/09/02 07:00:08;;;;;;;11.10;3.47;;;20.10;40.30;;;;;;5120667;27;46156;-81
2023/09/02 07:02:34;;;;;;;5.53;3.00;;;20.10;41.30;;;;;;5129359;27;46439;-79
2023/09/02 07:04:59;;;;;;;5.10;2.67;;;20.20;41.10;;;;;;5132299;27;46429;-79
2023/09/02 07:07:25;;;;;;;5.17;2.80;;;20.30;41.50;;;;;;5114934;27;46425;-77
2023/09/02 07:09:50;;;;;;;5.60;2.80;;;20.40;41.30;;;;;;5128944;27;46651;-79
2023/09/02 07:12:16;;;;;;;5.40;3.00;;;20.60;41.00;;;;;;5129538;27;46469;-79
2023/09/02 07:14:42;;;;;;;5.60;3.17;;;20.80;40.70;;;;;;5128642;27;46439;-78
2023/09/02 07:17:07;;;;;;;5.33;3.20;;;20.90;40.90;;;;;;5111275;27;46488;-80
2023/09/02 07:19:33;;;;;;;7.00;3.10;;;21.10;39.50;;;;;;5113895;27;46561;-79
2023/09/02 07:21:58;;;;;;;6.23;2.97;;;21.20;40.60;;;;;;5129568;27;46517;-79
2023/09/02 07:24:24;;;;;;;8.03;2.60;;;21.20;40.30;;;;;;5112957;27;48271;-80
2023/09/02 07:26:50;;;;;;;6.27;2.67;;;21.30;40.00;;;;;;5131785;27;46511;-80
2023/09/02 07:29:15;;;;;;;5.73;3.10;;;21.40;39.80;;;;;;5133212;27;46769;-80
2023/09/02 07:31:41;;;;;;;6.53;2.90;;;21.40;39.00;;;;;;5128248;27;46500;-81
2023/09/02 07:34:07;;;;;;;5.33;2.57;;;21.60;40.00;;;;;;5113845;27;48764;-81
2023/09/02 07:36:32;;;;;;;4.20;2.43;;;21.70;39.80;;;;;;5134574;27;45954;-81
2023/09/02 07:38:58;;;;;;;4.70;2.80;;;21.70;39.70;;;;;;5134012;27;46374;-79
2023/09/02 07:41:23;;;;;;;8.10;3.47;;;21.70;38.50;;;;;;5120217;27;46988;-78
2023/09/02 07:43:49;;;;;;;5.70;2.30;;;21.70;39.60;;;;;;5110321;27;48488;-80
2023/09/02 07:46:14;;;;;;;8.67;3.20;;;21.80;39.90;;;;;;5129397;27;46444;-78
2023/09/02 07:48:40;;;;;;;9.90;3.03;;;21.90;39.60;;;;;;5130720;27;46653;-81
2023/09/02 07:51:06;;;;;;;7.80;2.83;;;22.00;39.30;;;;;;5111227;27;46771;-78
2023/09/02 07:53:32;;;;;;;5.43;2.73;;;22.10;38.80;;;;;;5115112;27;48416;-80
2023/09/02 07:55:58;;;;;;;6.90;3.20;;;22.20;38.40;;;;;;5111405;27;46923;-78
2023/09/02 07:58:23;;;;;;;4.40;2.70;;;22.30;38.60;;;;;;5121934;27;45904;-80
2023/09/02 08:00:49;;;;;;;5.83;2.90;;;22.40;38.30;;;;;;5126708;27;46982;-83
2023/09/02 08:03:14;;;;;;;6.27;2.80;;;22.50;38.10;;;;;;5131243;27;46212;-80
2023/09/02 08:05:40;;;;;;;9.30;2.97;;;22.60;37.60;;;;;;5127348;27;46868;-79
2023/09/02 08:08:06;;;;;;;4.63;2.87;;;22.60;37.60;;;;;;5127066;27;47065;-80
2023/09/02 08:10:33;;;;;;;6.20;2.40;;;22.70;37.20;;;;;;5129558;27;46677;-78
2023/09/02 08:12:59;;;;;;;7.20;3.00;;;22.70;36.60;;;;;;5120074;27;46963;-75
2023/09/02 08:15:24;;;;;;;5.43;3.10;;;22.80;36.70;;;;;;5127628;27;46819;-79
2023/09/02 08:17:50;;;;;;;7.53;2.53;;;23.00;36.80;;;;;;5108838;27;47153;-82
2023/09/02 08:20:15;;;;;;;4.20;2.10;;;23.10;36.50;;;;;;5125604;27;46805;-80
2023/09/02 08:22:43;;;;;;;6.30;2.87;;;23.10;35.80;;;;;;5128981;27;46762;-80
2023/09/02 08:25:12;;;;;;;4.90;2.30;;;23.20;35.40;;;;;;5132444;27;46782;-80
2023/09/02 08:27:37;;;;;;;4.23;2.50;;;23.40;35.00;;;;;;5128852;27;46721;-80
2023/09/02 08:30:04;;;;;;;5.53;2.80;;;23.60;34.90;;;;;;5128232;27;47245;-85
2023/09/02 08:32:31;;;;;;;8.00;2.80;;;23.60;34.40;;;;;;5125167;27;46448;-81
2023/09/02 08:34:56;;;;;;;7.83;3.00;;;23.60;34.10;;;;;;5106975;27;46649;-81
2023/09/02 08:37:22;;;;;;;6.80;2.80;;;23.60;34.10;;;;;;5127375;27;46555;-81
2023/09/02 08:39:47;;;;;;;6.63;2.70;;;23.60;34.00;;;;;;5110794;27;46393;-80
2023/09/02 08:42:19;;;;;;;5.70;2.50;;;23.60;34.00;;;;;;5126808;27;46512;-79
2023/09/02 08:44:47;;;;;;;7.83;2.57;;;23.60;33.30;;;;;;5127646;27;46337;-80
2023/09/02 08:47:16;;;;;;;4.63;2.27;;;23.60;33.40;;;;;;5113619;27;46518;-80
2023/09/02 08:49:42;;;;;;;4.70;2.50;;;23.80;31.60;;;;;;5128990;27;46077;-80
2023/09/02 08:52:08;;;;;;;5.20;2.20;;;23.90;32.40;;;;;;5128252;27;46381;-81
2023/09/02 08:54:36;;;;;;;3.80;2.10;;;24.10;31.30;;;;;;5109293;27;46635;-78
2023/09/02 08:57:03;;;;;;;5.40;2.43;;;24.20;30.50;;;;;;5128654;27;46522;-80
2023/09/02 08:59:28;;;;;;;6.00;2.50;;;24.50;29.20;;;;;;5126386;27;46552;-77
2023/09/02 09:01:56;;;;;;;7.17;2.80;;;24.40;29.90;;;;;;5124521;27;46543;-81
2023/09/02 09:04:22;;;;;;;4.10;2.27;;;24.50;29.60;;;;;;5125485;27;46450;-81
2023/09/02 09:06:49;;;;;;;5.43;2.53;;;24.60;29.30;;;;;;5126747;27;47009;-79
2023/09/02 09:09:16;;;;;;;3.90;2.40;;;24.80;29.70;;;;;;5129173;27;46662;-80
2023/09/02 09:11:43;;;;;;;6.23;2.50;;;24.80;27.10;;;;;;5127936;27;46607;-81
2023/09/02 09:14:14;;;;;;;9.17;2.93;;;25.00;28.00;;;;;;5127382;27;46657;-79
2023/09/02 09:16:42;;;;;;;5.97;2.60;;;25.00;27.80;;;;;;5125776;27;45928;-80
2023/09/02 09:19:07;;;;;;;4.90;2.20;;;25.10;27.40;;;;;;5126644;27;46761;-83
2023/09/02 09:21:33;;;;;;;5.57;2.13;;;25.20;25.60;;;;;;5129010;27;48079;-81
2023/09/02 09:23:58;;;;;;;3.80;2.13;;;25.30;26.10;;;;;;5127368;27;46488;-82
2023/09/02 09:26:25;;;;;;;4.50;2.10;;;25.40;26.20;;;;;;5129349;27;46686;-82
2023/09/02 09:28:56;;;;;;;8.67;2.10;;;25.50;26.20;;;;;;5129493;27;46744;-81
2023/09/02 09:31:23;;;;;;;3.70;1.83;;;25.40;25.10;;;;;;5128777;27;46780;-82
2023/09/02 09:34:00;;;;;;;3.60;1.93;;;25.50;25.60;;;;;;5109960;27;47237;-82
2023/09/02 09:36:27;;;;;;;10.10;1.60;;;25.40;24.30;;;;;;5128277;27;46411;-81
2023/09/02 09:38:54;;;;;;;5.50;1.77;;;25.30;24.10;;;;;;5118444;27;46760;-79
2023/09/02 09:41:20;;;;;;;6.27;2.33;;;25.40;22.40;;;;;;5130951;27;46752;-82
2023/09/02 09:44:02;;;;;;;3.63;1.90;;;25.60;23.50;;;;;;5112648;27;46780;-82
2023/09/02 09:46:27;;;;;;;5.47;1.63;;;25.60;22.70;;;;;;5122597;27;46439;-82
2023/09/02 09:49:00;;;;;;;5.43;1.90;;;25.70;22.90;;;;;;5129486;27;46530;-80
2023/09/02 09:51:26;;;;;;;3.90;1.90;;;25.70;21.00;;;;;;5136281;27;46557;-80
2023/09/02 09:53:52;;;;;;;3.60;1.80;;;25.80;22.00;;;;;;5136233;27;46539;-80
2023/09/02 09:56:18;;;;;;;4.10;1.93;;;25.90;21.70;;;;;;5134257;27;46753;-83
2023/09/02 09:58:43;;;;;;;4.80;2.20;;;26.20;21.20;;;;;;5134961;27;46623;-78
2023/09/02 10:01:09;;;;;;;4.30;1.93;;;26.10;19.50;;;;;;5139812;27;46695;-80
2023/09/02 10:03:35;;;;;;;4.70;2.13;;;26.10;20.50;;;;;;5136123;27;46696;-80
2023/09/02 10:06:01;;;;;;;6.43;2.17;;;26.10;20.00;;;;;;5127624;27;46717;-79
2023/09/02 10:08:27;;;;;;;3.10;1.60;;;26.10;19.80;;;;;;5125549;27;46502;-79
2023/09/02 10:10:52;;;;;;;6.80;1.90;;;26.10;18.90;;;;;;5127095;27;47152;-80
2023/09/02 10:13:19;;;;;;;21.90;2.83;;;26.20;19.80;;;;;;5126267;27;46808;-78
2023/09/02 10:15:46;;;;;;;7.40;2.50;;;26.20;20.70;;;;;;5123528;27;46651;-80
2023/09/02 10:18:12;;;;;;;5.27;2.10;;;26.10;20.10;;;;;;5127850;27;46549;-79
2023/09/02 10:20:38;;;;;;;4.90;2.67;;;26.00;19.50;;;;;;5125086;27;46427;-80
2023/09/02 10:23:10;;;;;;;6.63;2.23;;;26.00;20.30;;;;;;5114641;27;47089;-79
2023/09/02 10:25:39;;;;;;;4.90;2.70;;;25.80;20.50;;;;;;5127287;27;46611;-76
2023/09/02 10:28:09;;;;;;;6.30;2.43;;;25.80;20.50;;;;;;5107850;27;46669;-79
2023/09/02 10:30:54;;;;;;;7.83;2.90;;;25.90;19.30;;;;;;5124933;27;46867;-79
2023/09/02 10:33:38;;;;;;;6.40;2.53;;;25.90;19.80;;;;;;5126189;27;46658;-79
2023/09/02 10:36:06;;;;;;;9.20;2.37;;;25.70;19.70;;;;;;5107668;27;46263;-79
2023/09/02 10:38:41;;;;;;;5.47;2.17;;;25.60;19.70;;;;;;5103085;27;46474;-78
2023/09/02 10:41:13;;;;;;;4.70;2.63;;;25.50;19.10;;;;;;5103605;27;48067;-79
2023/09/02 10:43:40;;;;;;;4.73;2.10;;;25.50;19.90;;;;;;5124837;27;46523;-80
2023/09/02 10:46:08;;;;;;;4.00;2.20;;;25.60;19.70;;;;;;5124827;27;46741;-82
2023/09/02 10:48:36;;;;;;;6.13;2.40;;;25.80;19.70;;;;;;5125550;27;45955;-78
2023/09/02 10:51:04;;;;;;;5.43;2.20;;;25.80;18.80;;;;;;5119412;27;47139;-79
2023/09/02 10:53:48;;;;;;;5.67;2.30;;;25.70;19.60;;;;;;5119568;27;46579;-79
2023/09/02 10:56:31;;;;;;;5.83;2.10;;;25.60;18.40;;;;;;5128459;27;45841;-78
2023/09/02 10:59:05;;;;;;;8.00;2.20;;;25.50;18.60;;;;;;5127431;27;46466;-77
2023/09/02 11:01:44;;;;;;;4.67;2.30;;;25.70;17.80;;;;;;5107220;27;47554;-78
2023/09/02 11:04:10;;;;;;;7.80;2.50;;;25.90;18.70;;;;;;5126504;27;46757;-79
2023/09/02 11:06:35;;;;;;;3.50;2.07;;;26.20;18.40;;;;;;5129586;27;47063;-78
2023/09/02 11:09:01;;;;;;;3.70;2.17;;;26.20;17.80;;;;;;5127135;27;46680;-78
2023/09/02 11:12:06;;;;;;;3.80;2.13;;;26.10;16.40;;;;;;5112256;27;48040;-79
2023/09/02 11:14:32;;;;;;;3.20;1.73;;;26.10;17.10;;;;;;5129775;27;46488;-78
2023/09/02 11:17:29;;;;;;;4.47;2.10;;;25.90;18.40;;;;;;5127287;27;46843;-79
2023/09/02 11:20:06;;;;;;;4.20;1.80;;;25.90;16.70;;;;;;5126881;27;46467;-78
2023/09/02 11:23:09;;;;;;;6.30;1.97;;;26.00;17.50;;;;;;5127081;27;49754;-78
2023/09/02 11:25:41;;;;;;;3.50;1.60;;;25.90;17.50;;;;;;5020187;28;46813;-80
2023/09/02 11:28:18;;;;;;;3.60;1.77;;;26.00;17.30;;;;;;5117013;27;46273;-80
2023/09/02 11:31:09;;;;;;;3.33;1.87;;;25.80;15.10;;;;;;5132800;27;46729;-79
2023/09/02 11:33:37;;;;;;;6.50;2.20;;;25.80;16.40;;;;;;5133086;27;46759;-79
2023/09/02 11:36:10;;;;;;;7.20;1.87;;;25.90;16.40;;;;;;5130303;27;46401;-80
2023/09/02 11:38:35;;;;;;;4.23;1.70;;;26.00;16.00;;;;;;5111928;27;46650;-79
2023/09/02 11:41:01;;;;;;;3.97;1.80;;;26.00;15.10;;;;;;5131444;27;46480;-80
2023/09/02 11:43:32;;;;;;;5.70;1.93;;;26.00;16.10;;;;;;5132113;27;47135;-81
2023/09/02 11:45:59;;;;;;;2.87;1.63;;;26.00;15.40;;;;;;5137285;27;46916;-82
2023/09/02 11:48:26;;;;;;;3.27;1.73;;;25.90;15.30;;;;;;5115522;27;46471;-81
2023/09/02 11:50:52;;;;;;;4.37;2.00;;;26.00;14.90;;;;;;5132798;27;46611;-79
2023/09/02 11:53:18;;;;;;;3.50;1.90;;;26.10;15.50;;;;;;5127443;27;46554;-78
2023/09/02 11:55:43;;;;;;;4.30;2.47;;;26.20;15.60;;;;;;5128464;27;46789;-79
2023/09/02 11:58:14;;;;;;;4.33;2.03;;;26.40;15.70;;;;;;5128671;27;46509;-80
2023/09/02 12:00:43;;;;;;;4.63;1.83;;;26.40;14.70;;;;;;5109437;27;46823;-78
2023/09/02 12:03:09;;;;;;;4.50;1.70;;;26.40;15.60;;;;;;5110540;27;48151;-76
2023/09/02 12:05:45;;;;;;;6.50;1.80;;;26.40;15.70;;;;;;5112196;27;46437;-76
2023/09/02 12:08:11;;;;;;;3.80;2.10;;;26.40;15.70;;;;;;5123853;27;46419;-76
2023/09/02 12:10:37;;;;;;;8.57;2.10;;;26.20;13.30;;;;;;5109953;27;46690;-74
2023/09/02 12:13:03;;;;;;;3.40;2.00;;;26.20;14.60;;;;;;5127927;27;47012;-77
2023/09/02 12:15:32;;;;;;;5.10;1.77;;;26.20;15.10;;;;;;5124586;27;46551;-77
2023/09/02 12:17:57;;;;;;;4.20;1.93;;;26.30;14.90;;;;;;5128465;27;46738;-76
2023/09/02 12:20:23;;;;;;;3.97;2.20;;;26.20;13.20;;;;;;5127606;27;46464;-78
2023/09/02 12:22:49;;;;;;;4.47;1.80;;;26.20;14.00;;;;;;5110028;27;48613;-78
2023/09/02 12:25:22;;;;;;;7.63;2.50;;;26.20;14.00;;;;;;5127889;27;46503;-79
2023/09/02 12:27:48;;;;;;;4.00;1.90;;;26.30;13.50;;;;;;5128258;27;46562;-80
2023/09/02 12:30:26;;;;;;;3.87;1.80;;;26.40;12.70;;;;;;5128167;27;46524;-80
2023/09/02 12:32:51;;;;;;;3.67;1.90;;;26.50;12.60;;;;;;5128453;27;46709;-79
2023/09/02 12:35:17;;;;;;;5.67;1.93;;;26.60;13.40;;;;;;5125700;27;46528;-77
2023/09/02 12:37:42;;;;;;;5.33;1.90;;;26.70;13.50;;;;;;5127160;27;46617;-77
2023/09/02 12:40:10;;;;;;;3.50;1.93;;;26.80;12.50;;;;;;5109084;27;46760;-80
2023/09/02 12:42:36;;;;;;;4.13;1.83;;;26.70;13.20;;;;;;5129064;27;47598;-77
2023/09/02 12:45:05;;;;;;;4.37;2.13;;;26.70;13.00;;;;;;5126941;27;46505;-77
2023/09/02 12:47:31;;;;;;;7.90;2.10;;;26.60;12.80;;;;;;5108284;27;46538;-78